Time;durP1;ratioP1;P1;durP2;ratioP2;P2;SDS_P1;SDS_P2;PMS_P1;PMS_P2;Temp;Humidity;BMP_temperature;BMP_pressure;BME280_temperature;BME280_humidity;BME280_pressure;Samples;Min_cycle;Max_cycle;Signal;HPM_P1;HPM_P2
2022/07/24 00:00:51;;;;;;;5.53;4.25;;;;;;;24.29;34.77;94000.59;4991069;28;20018;-79
2022/07/24 00:03:17;;;;;;;10.45;5.97;;;;;;;24.23;34.86;93996.72;4991127;28;20468;-77
2022/07/24 00:05:42;;;;;;;10.27;4.68;;;;;;;24.30;35.17;94018.41;4989746;28;20041;-79
2022/07/24 00:08:08;;;;;;;5.22;4.32;;;;;;;24.23;35.32;94008.38;4989930;28;20509;-79
2022/07/24 00:10:33;;;;;;;8.60;4.63;;;;;;;24.26;35.57;94004.06;4991822;28;20022;-79
2022/07/24 00:12:58;;;;;;;6.45;4.07;;;;;;;24.14;35.24;93990.94;4988066;28;20048;-80
2022/07/24 00:15:24;;;;;;;9.00;4.35;;;;;;;24.24;34.91;93998.28;4991262;28;20037;-80
2022/07/24 00:17:50;;;;;;;6.22;4.03;;;;;;;24.23;34.59;93991.28;4993219;28;20025;-80
2022/07/24 00:20:15;;;;;;;6.82;4.50;;;;;;;24.27;34.91;94002.91;4989837;28;20029;-79
2022/07/24 00:22:40;;;;;;;7.70;4.88;;;;;;;24.23;35.26;94002.16;4990580;28;20026;-79
2022/07/24 00:25:06;;;;;;;9.00;4.75;;;;;;;24.26;34.84;94012.22;5001695;28;20022;-80
2022/07/24 00:27:32;;;;;;;7.32;4.07;;;;;;;23.98;35.27;93992.13;4989341;28;20590;-79
2022/07/24 00:29:57;;;;;;;8.63;4.35;;;;;;;23.91;35.50;93988.66;4989863;28;20593;-80
2022/07/24 00:32:22;;;;;;;6.43;4.20;;;;;;;23.87;34.98;93991.41;4990341;28;20147;-79
2022/07/24 00:34:48;;;;;;;8.82;4.00;;;;;;;23.95;34.72;93987.47;4996510;28;20022;-80
2022/07/24 00:37:13;;;;;;;5.53;4.07;;;;;;;23.92;34.46;93982.84;4989356;28;20556;-78
2022/07/24 00:39:39;;;;;;;8.40;4.40;;;;;;;24.07;34.23;93999.09;4990290;28;20030;-79
2022/07/24 00:42:04;;;;;;;6.85;4.00;;;;;;;24.09;34.23;93996.75;4989205;28;20026;-79
2022/07/24 00:44:29;;;;;;;6.45;4.00;;;;;;;24.18;33.97;94005.28;4995802;28;20481;-80
2022/07/24 00:46:55;;;;;;;4.32;3.40;;;;;;;24.10;34.14;93990.16;5003745;28;20535;-79
2022/07/24 00:49:21;;;;;;;8.57;4.80;;;;;;;24.14;34.21;93994.44;4990164;28;20026;-79
2022/07/24 00:51:49;;;;;;;6.20;4.35;;;;;;;24.22;34.19;93989.75;4990217;28;20164;-79
2022/07/24 00:54:16;;;;;;;6.65;4.47;;;;;;;24.27;34.14;93997.47;4988002;28;20096;-80
2022/07/24 00:56:44;;;;;;;7.28;3.97;;;;;;;24.09;35.02;93975.03;4986483;28;20025;-79
2022/07/24 00:59:10;;;;;;;8.05;4.53;;;;;;;24.23;34.89;93999.44;4990616;28;20053;-80
2022/07/24 01:01:35;;;;;;;6.95;4.32;;;;;;;24.10;35.08;93992.88;4988348;28;20126;-79
2022/07/24 01:04:01;;;;;;;7.03;4.28;;;;;;;23.99;35.23;93985.53;4990349;28;20433;-79
2022/07/24 01:06:27;;;;;;;6.53;4.15;;;;;;;23.93;35.29;93989.84;4987429;28;20568;-79
2022/07/24 01:08:53;;;;;;;5.95;3.92;;;;;;;23.82;35.67;93986.38;4989252;28;20042;-79
2022/07/24 01:11:19;;;;;;;7.85;4.82;;;;;;;23.92;35.53;94006.50;4988244;28;20603;-79
2022/07/24 01:13:47;;;;;;;9.35;4.60;;;;;;;23.92;35.79;93999.13;4988149;28;20478;-79
2022/07/24 01:16:13;;;;;;;6.05;4.28;;;;;;;23.89;35.83;94001.88;4989963;28;20025;-79
2022/07/24 01:18:39;;;;;;;7.53;4.38;;;;;;;23.88;36.08;94006.53;4988595;28;20037;-80
2022/07/24 01:21:06;;;;;;;7.38;4.90;;;;;;;23.69;36.15;93979.81;4989838;28;20116;-79
2022/07/24 01:23:32;;;;;;;7.35;4.75;;;;;;;23.68;35.98;93983.69;4987807;28;20173;-79
2022/07/24 01:25:57;;;;;;;7.20;4.40;;;;;;;23.65;36.07;93989.91;4989356;28;20022;-79
2022/07/24 01:28:23;;;;;;;6.55;4.95;;;;;;;23.41;35.60;93941.84;4990641;28;20125;-80
2022/07/24 01:30:48;;;;;;;7.30;4.10;;;;;;;23.75;35.70;93989.13;4990068;28;20413;-78
2022/07/24 01:33:14;;;;;;;8.70;4.50;;;;;;;23.79;35.49;93989.88;4989456;28;20494;-78
2022/07/24 01:35:41;;;;;;;6.85;4.30;;;;;;;23.56;35.49;93960.44;4990326;28;20034;-78
2022/07/24 01:38:06;;;;;;;9.35;5.13;;;;;;;23.55;35.91;93985.28;4989721;28;20033;-78
2022/07/24 01:40:31;;;;;;;7.63;4.57;;;;;;;23.28;36.23;93948.84;4986263;28;20390;-78
2022/07/24 01:42:57;;;;;;;10.52;4.93;;;;;;;23.43;35.97;93983.72;4990259;28;20475;-78
2022/07/24 01:45:24;;;;;;;9.32;5.75;;;;;;;23.17;36.26;93963.19;4988539;28;20038;-78
2022/07/24 01:47:49;;;;;;;7.70;5.00;;;;;;;23.36;36.65;93982.97;4991215;28;20053;-78
2022/07/24 01:50:15;;;;;;;11.05;5.13;;;;;;;23.17;36.71;93959.72;4989744;28;20022;-78
2022/07/24 01:52:40;;;;;;;15.38;5.13;;;;;;;23.20;36.91;93972.50;4991041;28;20157;-78
2022/07/24 01:55:06;;;;;;;10.82;5.63;;;;;;;23.21;37.22;93974.06;4989272;28;20180;-78
2022/07/24 01:57:32;;;;;;;9.68;6.40;;;;;;;23.29;37.13;93977.53;5001877;28;20069;-77
2022/07/24 01:59:59;;;;;;;9.77;6.00;;;;;;;23.24;37.14;93950.78;4990380;28;20490;-78
2022/07/24 02:02:25;;;;;;;7.50;5.03;;;;;;;23.10;37.09;93935.31;4989301;28;20522;-78
2022/07/24 02:04:51;;;;;;;6.07;4.70;;;;;;;23.25;37.25;93965.91;4988273;28;20034;-81
2022/07/24 02:07:16;;;;;;;8.10;5.10;;;;;;;23.00;37.53;93945.00;4987507;28;20022;-78
2022/07/24 02:09:42;;;;;;;8.82;5.20;;;;;;;23.00;37.68;93957.78;4991987;28;20042;-78
2022/07/24 02:12:07;;;;;;;8.52;5.38;;;;;;;22.92;37.95;93965.16;4989245;28;20469;-78
2022/07/24 02:14:33;;;;;;;8.85;5.45;;;;;;;22.85;38.12;93948.06;4992093;28;20030;-78
2022/07/24 02:16:58;;;;;;;9.02;5.88;;;;;;;22.89;37.69;93948.88;4991537;28;20062;-78
2022/07/24 02:19:24;;;;;;;7.93;5.82;;;;;;;22.98;37.62;93952.75;4990724;28;20283;-78
2022/07/24 02:21:49;;;;;;;8.43;5.50;;;;;;;23.09;37.50;93963.59;4992282;28;20394;-78
2022/07/24 02:24:15;;;;;;;8.00;5.13;;;;;;;23.20;37.59;93966.31;4990418;28;20030;-78
2022/07/24 02:26:40;;;;;;;9.02;5.85;;;;;;;23.05;38.05;93969.03;4991068;28;20022;-78
2022/07/24 02:29:05;;;;;;;7.38;5.30;;;;;;;22.83;38.52;93948.44;5003804;28;20032;-78
2022/07/24 02:31:31;;;;;;;8.32;6.00;;;;;;;22.84;37.73;93939.16;4990911;28;20132;-78
2022/07/24 02:33:56;;;;;;;7.65;5.25;;;;;;;22.82;37.92;93943.44;4994391;28;20022;-78
2022/07/24 02:36:22;;;;;;;8.65;6.22;;;;;;;22.96;37.99;93965.16;4991470;28;20034;-78
2022/07/24 02:38:47;;;;;;;9.23;5.95;;;;;;;23.05;38.18;93974.44;4993761;28;20591;-80
2022/07/24 02:41:12;;;;;;;8.60;6.80;;;;;;;22.60;38.42;93935.28;4992847;28;20057;-78
2022/07/24 02:43:38;;;;;;;8.90;5.60;;;;;;;23.00;38.35;93982.97;4992269;28;20024;-78
2022/07/24 02:46:03;;;;;;;10.77;5.70;;;;;;;22.53;38.76;93931.81;4993314;28;20037;-78
2022/07/24 02:48:29;;;;;;;11.55;6.88;;;;;;;22.84;38.93;93979.06;4993245;28;20561;-78
2022/07/24 02:50:54;;;;;;;6.95;6.22;;;;;;;22.84;38.80;93974.41;4991037;28;20026;-78
2022/07/24 02:53:20;;;;;;;9.98;5.93;;;;;;;22.90;38.69;93983.75;4993037;28;20439;-79
2022/07/24 02:55:46;;;;;;;7.75;5.70;;;;;;;22.87;39.00;93981.81;4993758;28;20072;-78
2022/07/24 02:58:11;;;;;;;10.23;6.55;;;;;;;22.74;39.06;93969.75;4993217;28;20034;-78
2022/07/24 03:00:36;;;;;;;8.25;5.78;;;;;;;22.74;39.11;93961.63;4993868;28;20121;-78
2022/07/24 03:03:02;;;;;;;8.43;5.68;;;;;;;22.84;39.09;93979.84;4990730;28;20038;-78
2022/07/24 03:05:28;;;;;;;12.30;6.50;;;;;;;22.78;39.09;93964.34;4995110;28;20031;-78
2022/07/24 03:07:53;;;;;;;8.77;5.60;;;;;;;22.74;39.47;93969.75;4992866;28;20022;-78
2022/07/24 03:10:19;;;;;;;8.98;5.85;;;;;;;22.63;39.57;93960.84;5006154;28;20425;-79
2022/07/24 03:12:45;;;;;;;10.18;5.82;;;;;;;22.69;39.85;93978.28;4991617;28;20125;-78
2022/07/24 03:15:13;;;;;;;9.35;6.75;;;;;;;22.72;39.06;93978.28;4990878;28;20025;-78
2022/07/24 03:17:39;;;;;;;8.65;5.80;;;;;;;22.58;39.23;93961.25;4992468;28;20037;-78
2022/07/24 03:20:06;;;;;;;12.70;7.32;;;;;;;22.76;38.86;93977.50;4989976;28;20025;-78
2022/07/24 03:22:31;;;;;;;8.77;5.72;;;;;;;22.58;39.17;93967.44;4990492;28;20042;-78
2022/07/24 03:24:56;;;;;;;7.10;5.03;;;;;;;22.51;39.94;93972.06;4991398;28;20038;-78
2022/07/24 03:27:22;;;;;;;12.18;6.90;;;;;;;22.45;40.16;93968.16;4990440;28;21289;-78
2022/07/24 03:29:47;;;;;;;11.27;6.82;;;;;;;22.31;40.23;93963.50;4991200;28;20460;-79
2022/07/24 03:32:13;;;;;;;10.77;6.63;;;;;;;22.29;40.26;93972.00;4993222;28;20462;-79
2022/07/24 03:34:38;;;;;;;10.68;6.00;;;;;;;22.29;40.15;93977.41;4991924;28;20034;-80
2022/07/24 03:37:04;;;;;;;12.27;5.90;;;;;;;22.11;39.55;93935.94;4991883;28;20458;-78
2022/07/24 03:39:30;;;;;;;6.47;4.60;;;;;;;22.36;39.03;93957.72;4996461;28;20026;-79
2022/07/24 03:41:55;;;;;;;8.57;5.22;;;;;;;22.46;38.41;93975.91;4992761;28;20026;-78
2022/07/24 03:44:20;;;;;;;7.25;4.60;;;;;;;22.41;38.47;93951.13;4992915;28;20025;-79
2022/07/24 03:46:46;;;;;;;8.20;4.65;;;;;;;22.63;38.46;93982.53;4991973;28;20033;-76
2022/07/24 03:49:11;;;;;;;8.88;4.60;;;;;;;22.42;38.15;93947.28;4990719;28;20487;-78
2022/07/24 03:51:37;;;;;;;9.57;5.07;;;;;;;22.43;37.87;93946.13;4992187;28;20026;-78
2022/07/24 03:54:03;;;;;;;29.88;5.57;;;;;;;22.66;38.20;93979.06;4989242;28;20509;-78
2022/07/24 03:56:28;;;;;;;16.50;5.35;;;;;;;22.62;38.35;93968.22;4989702;28;20038;-79
2022/07/24 03:58:54;;;;;;;6.82;4.75;;;;;;;22.69;38.06;93967.44;4992075;28;20105;-79
2022/07/24 04:01:21;;;;;;;11.32;4.30;;;;;;;22.86;38.13;93980.25;4991725;28;20041;-78
2022/07/24 04:03:46;;;;;;;6.63;4.68;;;;;;;22.72;38.76;93956.59;4989558;28;20107;-79
2022/07/24 04:06:11;;;;;;;6.88;4.43;;;;;;;22.78;38.66;93956.97;4989917;28;20621;-78
2022/07/24 04:08:37;;;;;;;9.38;4.20;;;;;;;22.90;39.26;93961.28;4990762;28;20061;-79
2022/07/24 04:11:02;;;;;;;7.18;4.53;;;;;;;22.80;39.73;93935.69;4990780;28;20025;-76
2022/07/24 04:13:29;;;;;;;6.53;4.50;;;;;;;23.03;38.65;93979.47;4986481;28;20092;-79
2022/07/24 04:15:55;;;;;;;8.75;5.75;;;;;;;22.80;38.10;93951.94;4992116;28;20471;-78
2022/07/24 04:18:21;;;;;;;7.13;5.35;;;;;;;22.99;38.97;93986.84;4989836;28;20037;-79
2022/07/24 04:20:47;;;;;;;8.35;5.82;;;;;;;23.10;39.21;93990.34;4991944;28;20026;-79
2022/07/24 04:23:12;;;;;;;7.78;5.68;;;;;;;23.17;40.37;93996.94;4990319;28;20046;-79
2022/07/24 04:25:38;;;;;;;8.95;5.43;;;;;;;23.21;40.02;93989.56;4991474;28;20125;-78
2022/07/24 04:28:04;;;;;;;9.02;5.75;;;;;;;23.13;39.94;93970.56;4989940;28;20393;-81
2022/07/24 04:30:30;;;;;;;10.02;6.88;;;;;;;23.28;40.19;93967.84;4992283;28;20026;-80
2022/07/24 04:32:56;;;;;;;8.30;5.15;;;;;;;23.24;40.60;93948.84;4986943;28;20804;-80
2022/07/24 04:35:21;;;;;;;7.43;5.53;;;;;;;23.42;40.77;93968.59;4989769;28;20026;-78
2022/07/24 04:37:47;;;;;;;9.35;5.68;;;;;;;23.60;40.61;93987.59;4989346;28;20037;-78
2022/07/24 04:40:13;;;;;;;10.30;6.28;;;;;;;23.67;39.89;93982.13;4989767;28;20060;-78
2022/07/24 04:42:38;;;;;;;9.63;6.57;;;;;;;23.67;39.31;93968.56;4990982;28;20489;-81
2022/07/24 04:45:05;;;;;;;12.00;6.28;;;;;;;23.85;38.87;93987.53;4988875;28;20529;-81
2022/07/24 04:47:30;;;;;;;12.45;7.57;;;;;;;23.78;38.50;93988.31;4995200;28;20022;-80
2022/07/24 04:49:56;;;;;;;7.97;6.93;;;;;;;23.92;38.97;93990.22;4989864;28;20029;-80
2022/07/24 04:52:21;;;;;;;6.57;5.85;;;;;;;24.01;39.31;93994.06;4989817;28;20767;-78
2022/07/24 04:54:47;;;;;;;11.85;6.38;;;;;;;24.07;38.71;93997.16;4996465;28;20053;-78
2022/07/24 04:57:12;;;;;;;12.13;7.03;;;;;;;24.21;38.49;93991.69;4989370;28;20037;-79
2022/07/24 04:59:38;;;;;;;10.30;5.95;;;;;;;24.34;38.38;93986.59;4990224;28;20022;-79
2022/07/24 05:02:03;;;;;;;20.33;6.82;;;;;;;24.28;38.04;93997.09;4990713;28;20494;-80
2022/07/24 05:04:29;;;;;;;11.77;8.00;;;;;;;24.20;37.96;93975.78;4989196;28;20026;-80
2022/07/24 05:06:54;;;;;;;11.30;7.63;;;;;;;24.44;38.23;93996.63;4988331;28;20030;-80
2022/07/24 05:09:20;;;;;;;12.02;6.90;;;;;;;24.55;37.98;93997.31;4989209;28;20044;-80
2022/07/24 05:11:45;;;;;;;14.85;7.00;;;;;;;24.47;38.08;93979.50;4989525;28;20022;-80
2022/07/24 05:14:11;;;;;;;12.57;7.10;;;;;;;24.66;37.63;93991.84;4987347;28;20038;-80
2022/07/24 05:16:36;;;;;;;13.70;6.95;;;;;;;24.53;38.17;93996.97;4990110;28;20053;-81
2022/07/24 05:19:02;;;;;;;11.98;7.43;;;;;;;24.63;37.92;93998.84;4989323;28;20034;-80
2022/07/24 05:21:27;;;;;;;17.58;8.10;;;;;;;24.55;37.87;94007.44;4990478;28;20026;-80
2022/07/24 05:23:53;;;;;;;12.30;7.32;;;;;;;24.29;39.04;93995.16;4989430;28;20457;-80
2022/07/24 05:26:18;;;;;;;17.08;7.47;;;;;;;24.27;38.90;93992.81;4988371;28;20117;-80
2022/07/24 05:28:44;;;;;;;14.50;7.70;;;;;;;24.49;38.26;93998.94;4989262;28;20862;-80
2022/07/24 05:31:09;;;;;;;9.48;6.78;;;;;;;24.71;38.53;94011.25;4989717;28;20496;-80
2022/07/24 05:33:35;;;;;;;14.95;7.57;;;;;;;24.83;38.18;94008.06;4987640;28;20649;-80
2022/07/24 05:36:00;;;;;;;14.57;7.40;;;;;;;24.48;37.21;93991.94;4988959;28;20026;-80
2022/07/24 05:38:26;;;;;;;19.90;7.47;;;;;;;24.62;38.19;93996.53;4990716;28;20349;-79
2022/07/24 05:40:52;;;;;;;10.85;6.45;;;;;;;24.62;38.54;93977.47;4990466;28;20022;-80
2022/07/24 05:43:17;;;;;;;12.88;8.15;;;;;;;24.90;38.68;93990.13;4990671;28;20207;-80
2022/07/24 05:45:43;;;;;;;11.77;8.18;;;;;;;25.08;37.50;94001.66;4992826;28;20025;-80
2022/07/24 05:48:08;;;;;;;11.40;7.55;;;;;;;25.13;37.47;93995.78;4994297;28;20044;-81
2022/07/24 05:50:34;;;;;;;12.48;9.15;;;;;;;25.00;37.93;93990.06;4993335;28;20030;-80
2022/07/24 05:52:59;;;;;;;11.50;7.57;;;;;;;25.12;37.42;93991.53;4992664;28;20491;-80
2022/07/24 05:55:25;;;;;;;13.77;8.57;;;;;;;25.16;37.94;93978.66;4992228;28;20616;-80
2022/07/24 05:57:50;;;;;;;12.73;7.50;;;;;;;25.25;37.58;93985.19;5007848;28;20030;-80
2022/07/24 06:00:18;;;;;;;9.07;6.68;;;;;;;25.07;37.62;93987.31;4993298;28;20503;-80
2022/07/24 06:02:46;;;;;;;13.35;7.20;;;;;;;25.36;36.78;93996.03;5006022;28;20114;-80
2022/07/24 06:05:11;;;;;;;11.10;6.95;;;;;;;25.45;37.36;93980.00;4991935;28;20393;-80
2022/07/24 06:07:36;;;;;;;10.75;6.85;;;;;;;25.54;36.97;93963.19;4994522;28;20030;-80
2022/07/24 06:10:03;;;;;;;8.65;6.22;;;;;;;25.87;36.82;93988.88;4991391;28;20320;-79
2022/07/24 06:12:29;;;;;;;14.52;7.93;;;;;;;25.86;37.35;93979.19;4991707;28;20129;-80
2022/07/24 06:14:54;;;;;;;10.35;6.70;;;;;;;25.47;37.72;93985.03;4991924;28;20029;-80
2022/07/24 06:17:19;;;;;;;12.13;7.35;;;;;;;25.49;38.15;93969.84;4993628;28;20491;-80
2022/07/24 06:19:45;;;;;;;13.75;7.28;;;;;;;25.83;37.72;93997.09;4990017;28;20827;-80
2022/07/24 06:22:10;;;;;;;9.88;7.20;;;;;;;25.86;37.54;93973.75;4990718;28;20022;-80
2022/07/24 06:24:36;;;;;;;11.63;7.93;;;;;;;25.87;36.49;93994.34;4987265;28;20061;-80
2022/07/24 06:27:01;;;;;;;9.85;6.82;;;;;;;25.85;36.70;93977.66;5003185;28;20500;-80
2022/07/24 06:29:27;;;;;;;20.55;8.38;;;;;;;25.53;36.11;93939.84;4989293;28;20583;-80
2022/07/24 06:31:52;;;;;;;24.58;9.10;;;;;;;25.91;35.99;93948.81;4987697;28;20368;-80
2022/07/24 06:34:20;;;;;;;12.65;8.50;;;;;;;26.18;36.66;93963.25;4987770;28;20368;-80
2022/07/24 06:36:45;;;;;;;12.65;8.50;;;;;;;26.28;36.28;93969.75;4989328;28;20025;-80
2022/07/24 06:39:10;;;;;;;13.98;8.65;;;;;;;26.38;35.61;93960.66;4990017;28;20060;-80
2022/07/24 06:41:36;;;;;;;13.02;7.15;;;;;;;26.57;35.42;93968.22;4989757;28;20030;-77
2022/07/24 06:44:01;;;;;;;12.80;8.57;;;;;;;26.50;34.53;93938.31;4985787;28;20094;-80
2022/07/24 06:46:27;;;;;;;14.15;8.45;;;;;;;26.66;34.10;93949.38;4986130;28;20087;-80
2022/07/24 06:48:52;;;;;;;14.48;7.95;;;;;;;26.79;34.46;93971.41;4985493;28;20402;-80
2022/07/24 06:51:17;;;;;;;10.45;7.18;;;;;;;26.67;35.02;93963.78;4969307;28;20108;-81
2022/07/24 06:53:45;;;;;;;12.15;8.45;;;;;;;26.55;34.16;93954.19;4988908;28;20053;-81
2022/07/24 06:56:10;;;;;;;13.15;7.50;;;;;;;26.58;34.95;93955.34;4993457;28;20083;-79
2022/07/24 06:58:36;;;;;;;15.15;8.98;;;;;;;26.91;33.84;93970.81;4996155;28;20029;-80
2022/07/24 07:01:01;;;;;;;13.07;7.30;;;;;;;27.08;33.68;93975.28;4995656;28;20525;-80
2022/07/24 07:03:26;;;;;;;11.23;7.57;;;;;;;27.17;33.55;93972.00;4978845;28;20382;-80
2022/07/24 07:05:52;;;;;;;13.65;8.15;;;;;;;26.96;32.95;93970.38;4988279;28;20084;-80
2022/07/24 07:08:17;;;;;;;13.48;8.43;;;;;;;27.16;33.99;93975.94;4988049;28;20040;-80
2022/07/24 07:10:43;;;;;;;12.27;7.78;;;;;;;27.25;33.84;93968.75;4989417;28;20072;-80
2022/07/24 07:13:08;;;;;;;10.68;8.80;;;;;;;27.42;33.82;93962.19;4987451;28;20605;-80
2022/07/24 07:15:33;;;;;;;10.55;7.15;;;;;;;27.27;33.96;93943.75;4958009;28;20046;-80
2022/07/24 07:17:59;;;;;;;11.85;8.13;;;;;;;27.26;33.63;93940.25;4981118;28;20524;-80
2022/07/24 07:20:24;;;;;;;13.05;8.95;;;;;;;27.35;33.26;93973.25;4985797;28;20040;-80
2022/07/24 07:22:50;;;;;;;14.07;7.35;;;;;;;27.48;33.07;93961.72;4986855;28;20605;-80
2022/07/24 07:25:15;;;;;;;14.77;8.05;;;;;;;27.31;32.48;93950.72;4988032;28;20048;-80
2022/07/24 07:27:40;;;;;;;10.85;7.63;;;;;;;27.01;32.27;93939.88;4988001;28;20116;-80
2022/07/24 07:30:07;;;;;;;13.85;7.97;;;;;;;27.49;33.16;93966.00;4985997;28;20633;-80
2022/07/24 07:32:33;;;;;;;9.57;7.18;;;;;;;27.60;32.13;93956.47;4990969;28;20060;-80
2022/07/24 07:34:58;;;;;;;12.95;7.57;;;;;;;27.59;32.13;93943.22;4987720;28;20959;-80
2022/07/24 07:37:24;;;;;;;12.63;7.70;;;;;;;27.77;32.67;93960.03;4988891;28;20150;-80
2022/07/24 07:39:49;;;;;;;10.32;8.02;;;;;;;27.80;32.52;93962.72;4986343;28;20561;-80
2022/07/24 07:42:14;;;;;;;20.08;7.45;;;;;;;27.27;32.93;93954.69;4988968;28;20021;-80
2022/07/24 07:44:40;;;;;;;13.88;7.97;;;;;;;27.28;32.60;93946.06;4960368;28;20514;-80
2022/07/24 07:47:05;;;;;;;13.02;8.13;;;;;;;27.53;33.25;93963.97;4964091;28;20041;-80
2022/07/24 07:49:30;;;;;;;12.02;7.78;;;;;;;27.65;32.62;93949.75;4984756;28;20581;-79
2022/07/24 07:51:56;;;;;;;11.55;7.85;;;;;;;27.38;32.95;93938.88;4985483;28;20021;-80
2022/07/24 07:54:21;;;;;;;9.00;7.60;;;;;;;27.15;32.50;93958.78;4986994;28;20472;-79
2022/07/24 07:56:47;;;;;;;8.93;7.45;;;;;;;27.23;33.19;93954.72;4989903;28;20034;-80
2022/07/24 07:59:12;;;;;;;10.63;6.97;;;;;;;27.52;32.76;93954.25;4989835;28;20029;-79
2022/07/24 08:01:37;;;;;;;12.93;8.43;;;;;;;27.45;33.08;93921.59;4988421;28;20018;-80
2022/07/24 08:04:03;;;;;;;13.38;7.70;;;;;;;27.80;32.36;93954.53;4987766;28;20490;-80
2022/07/24 08:06:28;;;;;;;11.55;7.75;;;;;;;27.98;32.00;93965.09;4985489;28;20030;-80
2022/07/24 08:08:54;;;;;;;10.98;8.10;;;;;;;27.34;32.93;93938.94;4987423;28;20698;-80
2022/07/24 08:11:19;;;;;;;8.13;6.60;;;;;;;27.84;32.75;93970.84;4991671;28;20034;-80
2022/07/24 08:13:45;;;;;;;13.30;7.60;;;;;;;27.98;32.72;93959.63;4984554;28;20034;-79
2022/07/24 08:16:10;;;;;;;12.57;8.68;;;;;;;27.59;31.90;93932.28;4988374;28;20030;-80
2022/07/24 08:18:36;;;;;;;11.13;6.93;;;;;;;27.81;32.25;93938.91;4986642;28;20030;-80
2022/07/24 08:21:02;;;;;;;10.00;8.30;;;;;;;28.11;31.98;93968.00;4989896;28;20026;-80
2022/07/24 08:23:27;;;;;;;13.95;7.28;;;;;;;28.17;33.09;93961.63;4988962;28;20034;-79
2022/07/24 08:25:52;;;;;;;15.60;7.93;;;;;;;27.98;31.47;93958.84;4990385;28;20038;-80
2022/07/24 08:28:18;;;;;;;10.43;7.70;;;;;;;27.80;31.47;93942.81;4989356;28;21807;-80
2022/07/24 08:30:44;;;;;;;11.23;7.35;;;;;;;27.85;32.08;93923.19;4988395;28;20026;-80
2022/07/24 08:33:09;;;;;;;12.93;7.55;;;;;;;28.26;31.95;93944.63;4988751;28;20034;-80
2022/07/24 08:35:35;;;;;;;16.15;8.20;;;;;;;28.44;32.47;93958.72;4993456;28;20024;-80
2022/07/24 08:38:00;;;;;;;14.05;8.05;;;;;;;28.04;31.78;93959.91;4988634;28;20469;-80
2022/07/24 08:40:33;;;;;;;12.60;8.07;;;;;;;28.28;31.36;93949.69;4988511;28;20030;-80
2022/07/24 08:42:58;;;;;;;15.98;9.00;;;;;;;28.35;31.78;93958.53;4995076;28;20040;-80
2022/07/24 08:45:24;;;;;;;10.82;8.60;;;;;;;28.33;32.16;93951.94;4992498;28;20463;-80
2022/07/24 08:47:51;;;;;;;15.00;8.98;;;;;;;28.34;32.58;93951.50;4985795;28;20056;-80
2022/07/24 08:50:16;;;;;;;12.70;8.45;;;;;;;28.50;31.80;93928.91;4980840;28;20029;-80
2022/07/24 08:52:43;;;;;;;15.20;7.95;;;;;;;28.68;31.49;93951.19;4988704;28;20036;-79
2022/07/24 08:55:09;;;;;;;11.10;7.50;;;;;;;28.75;32.58;93939.28;4983155;28;20064;-80
2022/07/24 08:57:34;;;;;;;9.68;8.18;;;;;;;28.63;32.00;93944.25;4979963;28;20347;-80
2022/07/24 09:00:00;;;;;;;12.10;7.57;;;;;;;28.73;31.50;93933.47;4983404;28;20433;-78
2022/07/24 09:02:27;;;;;;;9.38;8.30;;;;;;;28.90;31.50;93940.50;4982496;28;20022;-79
2022/07/24 09:04:58;;;;;;;9.43;7.82;;;;;;;28.94;31.41;93952.91;4979886;28;20022;-80
2022/07/24 09:07:27;;;;;;;9.98;7.75;;;;;;;29.06;31.06;93948.72;4982062;28;20039;-79
2022/07/24 09:10:10;;;;;;;11.95;7.38;;;;;;;29.17;31.18;93959.44;4988098;28;20258;-80
2022/07/24 09:12:40;;;;;;;9.68;7.32;;;;;;;29.23;31.46;93966.72;4982175;28;20505;-80
2022/07/24 09:15:29;;;;;;;9.10;7.60;;;;;;;29.31;31.19;93959.09;4965617;28;20059;-81
2022/07/24 09:17:59;;;;;;;11.52;7.60;;;;;;;29.19;31.44;93940.59;4984361;28;20056;-80
2022/07/24 09:20:28;;;;;;;13.02;8.60;;;;;;;28.92;30.57;93933.41;4986942;28;20026;-80
2022/07/24 09:22:56;;;;;;;11.82;7.60;;;;;;;29.20;32.70;93955.84;4987191;28;20486;-80
2022/07/24 09:25:28;;;;;;;13.65;8.27;;;;;;;28.90;31.43;93941.28;4982649;28;20026;-80
2022/07/24 09:27:56;;;;;;;9.75;7.72;;;;;;;28.91;32.01;93955.72;4982894;28;20055;-80
2022/07/24 09:30:41;;;;;;;11.32;7.22;;;;;;;29.00;31.93;93959.41;4982088;28;20057;-80
2022/07/24 09:33:15;;;;;;;13.35;8.10;;;;;;;29.06;31.88;93954.97;4980531;28;20030;-81
2022/07/24 09:35:49;;;;;;;12.10;7.67;;;;;;;28.84;31.60;93942.97;4982408;28;20035;-80
2022/07/24 09:38:18;;;;;;;10.77;7.93;;;;;;;29.00;31.50;93956.69;4989344;28;20279;-80
2022/07/24 09:40:55;;;;;;;10.82;6.57;;;;;;;29.07;30.62;93956.50;4982884;28;20045;-78
2022/07/24 09:43:24;;;;;;;11.05;6.22;;;;;;;29.12;29.75;93949.75;4984183;28;20501;-80
2022/07/24 09:45:58;;;;;;;10.52;6.30;;;;;;;29.07;30.38;93923.66;4988961;28;20030;-80
2022/07/24 09:48:55;;;;;;;11.45;6.78;;;;;;;29.34;31.14;93936.31;4985416;28;20040;-80
2022/07/24 09:51:21;;;;;;;9.20;5.25;;;;;;;29.39;29.90;93941.28;4975841;28;20045;-80
2022/07/24 09:53:54;;;;;;;6.07;4.57;;;;;;;29.20;27.20;93931.97;4983956;28;20041;-80
2022/07/24 09:56:20;;;;;;;8.02;5.40;;;;;;;29.23;27.83;93936.59;4984145;28;20038;-81
2022/07/24 09:58:45;;;;;;;6.88;5.13;;;;;;;29.09;30.00;93896.59;4986013;28;20402;-79
2022/07/24 10:01:12;;;;;;;9.05;5.70;;;;;;;29.42;29.41;93934.94;4984472;28;20088;-80
2022/07/24 10:03:39;;;;;;;8.93;5.30;;;;;;;29.46;28.04;93921.94;4986039;28;20022;-80
2022/07/24 10:06:07;;;;;;;5.85;5.03;;;;;;;29.53;28.50;93922.50;4985582;28;20128;-80
2022/07/24 10:08:37;;;;;;;10.20;5.78;;;;;;;29.60;27.98;93916.06;4984027;28;20344;-81
2022/07/24 10:11:03;;;;;;;8.50;4.82;;;;;;;29.51;28.01;93924.13;4979574;28;20088;-80
2022/07/24 10:13:29;;;;;;;8.63;6.15;;;;;;;29.45;26.52;93925.84;4984439;28;20030;-79
2022/07/24 10:16:00;;;;;;;9.27;5.78;;;;;;;29.57;26.88;93938.88;4983189;28;20046;-79
2022/07/24 10:18:51;;;;;;;9.68;5.88;;;;;;;29.36;25.96;93934.69;4985176;28;20037;-81
2022/07/24 10:21:19;;;;;;;13.13;6.05;;;;;;;29.56;25.76;93926.34;4984055;28;20026;-80
2022/07/24 10:24:10;;;;;;;5.97;5.38;;;;;;;29.53;26.56;93910.75;4981920;28;20026;-80
2022/07/24 10:26:45;;;;;;;23.58;6.15;;;;;;;29.47;27.01;93931.69;4981686;28;20073;-80
2022/07/24 10:29:21;;;;;;;9.48;5.07;;;;;;;29.14;25.61;93897.28;4984344;28;20437;-80
2022/07/24 10:31:48;;;;;;;8.30;5.78;;;;;;;29.44;25.90;93924.31;4998395;28;20025;-78
2022/07/24 10:34:36;;;;;;;8.18;5.75;;;;;;;29.39;26.87;93928.34;4983646;28;20521;-80
2022/07/24 10:37:31;;;;;;;9.07;5.32;;;;;;;29.67;26.57;93918.66;4997447;28;20384;-80
2022/07/24 10:40:05;;;;;;;7.65;5.68;;;;;;;29.71;26.72;93916.59;4982531;28;20038;-80
2022/07/24 10:42:31;;;;;;;;;;;;;;;29.69;26.88;93918.97;4981625;28;20037;-80
2022/07/24 10:45:17;;;;;;;9.23;6.03;;;;;;;29.41;26.69;93879.38;4982942;28;20305;-81
2022/07/24 10:47:42;;;;;;;9.30;5.90;;;;;;;29.84;26.08;93913.88;4984664;28;20965;-79
2022/07/24 10:50:08;;;;;;;7.72;5.80;;;;;;;29.88;26.18;93903.56;4985742;28;20129;-80
2022/07/24 10:52:36;;;;;;;9.05;6.68;;;;;;;29.70;25.11;93893.13;4977445;28;20061;-80
2022/07/24 10:55:28;;;;;;;9.68;6.88;;;;;;;29.87;26.25;93908.28;4980227;28;20030;-80
2022/07/24 10:58:15;;;;;;;7.30;5.88;;;;;;;30.01;25.16;93906.38;4979197;28;20468;-80
2022/07/24 11:00:48;;;;;;;6.47;5.65;;;;;;;30.06;25.20;93903.09;4981887;28;20038;-77
2022/07/24 11:03:30;;;;;;;7.03;6.30;;;;;;;30.34;24.71;93892.06;4978030;28;20513;-80
2022/07/24 11:06:12;;;;;;;9.65;6.07;;;;;;;30.44;29.41;93889.44;4979426;28;20021;-80
2022/07/24 11:08:50;;;;;;;6.90;5.55;;;;;;;30.14;25.33;93866.00;4983147;28;20120;-78
2022/07/24 11:11:18;;;;;;;9.25;6.05;;;;;;;30.36;25.46;93891.63;4980610;28;20355;-78
2022/07/24 11:13:52;;;;;;;9.20;5.43;;;;;;;30.30;25.23;93885.94;4982468;28;20033;-80
2022/07/24 11:16:21;;;;;;;7.88;5.93;;;;;;;30.27;25.41;93883.28;4983984;28;20030;-80
2022/07/24 11:18:49;;;;;;;8.32;6.05;;;;;;;30.41;26.84;93885.56;4981878;28;20507;-79
2022/07/24 11:21:34;;;;;;;9.50;6.68;;;;;;;30.57;27.91;93876.47;4983698;28;20029;-80
2022/07/24 11:24:14;;;;;;;;;;;;;;;30.56;25.32;93886.69;4983750;28;20133;-81
2022/07/24 11:26:45;;;;;;;6.53;5.82;;;;;;;30.67;25.31;93881.66;4982359;28;20311;-80
2022/07/24 11:29:13;;;;;;;6.70;6.07;;;;;;;30.78;26.50;93876.63;4973648;28;20498;-80